Sutton, AK (99674)

1:15 AM AKST on February 14, 2016 (GMT -0900)
Sutton/Kings River | | Change Station
CLOSE
Current Station
Personal Weather Station
Location: Sutton, AK
Elevation: 600 ft
Nearby Weather Stations

Elev 600 ft 61.74 °N, 148.77 °W | Updated 2 seconds ago

Overcast
Overcast
33.7 °F
Feels Like 25 °F
N
13.0
Wind Variable Wind from NE
Gusts 16.0 mph

Today
High -- | Low -- °F
--% Chance of Precip.
Yesterday
High -- | Low -- °F
Precip. -- in
Pressure 29.36 in
Visibility 10.0 miles
Clouds Overcast 10000 ft
Windchill 25 °F
Dew Point 20 °F
Humidity 56%
Rainfall 0.00 in
Snow Depth Not available.
8:43 AM 5:36 PM
Waxing Crescent, 40% visible
METAR PAAQ 140953Z AUTO 03012KT 10SM OVC100 03/M07 A2935 RMK AO2 SLP942 T00281072 TSNO
Pressure 29.36 in
Visibility 10.0 miles
Clouds Overcast 10000 ft
Windchill 25 °F
Dew Point 20 °F
Humidity 56%
Rainfall 0.00 in
Snow Depth Not available.
8:43 AM 5:36 PM
Waxing Crescent, 40% visible
METAR PAAQ 140953Z AUTO 03012KT 10SM OVC100 03/M07 A2935 RMK AO2 SLP942 T00281072 TSNO

10-Day Weather Forecast

Almanac

Astronomy

Feb. 14, 2016 Rise Set
Actual Time
Civil Twilight
Nautical Twilight
Astronomical Twilight
Moon
Length of Visible Light
Length of Day
Tomorrow will be .
, % of the Moon is Illuminated

Today's Extremes

State Highs State Lows

Community

WunderPhotos

Upload Photos

1,892,765 photos uploaded!

WunderBlog® & News

Nearby

Air Quality

  Air Quality AQ Index Pollutant
Not available.

Snow Depth

Station Depth Elevation

Earthquake Activity

City Distance Mag. Time & Date
Minimum magnitude displayed is 2.5.

Coastal Water Temperatures

Place Temperature

Stations

Nearby Weather Stations

Station Location Temp. Windchill Dew Point Humidity Wind Precip. Elev Updated Type
                   

Watches & Warnings

There are currently no watches in effect.